createdAt,value
2018-07-06T00:00:57.948Z,101013.34
2018-07-06T00:03:44.477Z,101015.46
2018-07-06T00:06:30.864Z,101017.19
2018-07-06T00:09:17.308Z,101017.26
2018-07-06T00:12:03.929Z,101013.77
2018-07-06T00:14:50.456Z,101017.17
2018-07-06T00:17:36.982Z,101019.72
2018-07-06T00:20:23.491Z,101015.89
2018-07-06T00:23:10.026Z,101024.55
2018-07-06T00:25:56.511Z,101022.83
2018-07-06T00:28:42.893Z,101024.19
2018-07-06T00:31:29.229Z,101029.39
2018-07-06T00:34:15.693Z,101028.93
2018-07-06T00:37:02.252Z,101033.30
2018-07-06T00:39:48.661Z,101032.41
2018-07-06T00:42:35.204Z,101024.22
2018-07-06T00:45:21.516Z,101027.23
2018-07-06T00:48:07.891Z,101026.38
2018-07-06T00:50:54.696Z,101035.81
2018-07-06T00:53:41.109Z,101038.07
2018-07-06T00:56:27.492Z,101036.81
2018-07-06T00:59:14.096Z,101030.35
2018-07-06T01:02:00.487Z,101029.45
2018-07-06T01:04:46.849Z,101035.95
2018-07-06T01:07:33.221Z,101039.39
2018-07-06T01:10:19.562Z,101033.34
2018-07-06T01:13:06.168Z,101031.61
2018-07-06T01:15:52.747Z,101040.25
2018-07-06T01:18:39.220Z,101042.41
2018-07-06T01:21:25.849Z,101043.33
2018-07-06T01:24:12.300Z,101037.78
2018-07-06T01:26:58.836Z,101036.06
2018-07-06T01:29:45.323Z,101036.03
2018-07-06T01:32:31.688Z,101043.83
2018-07-06T01:35:18.226Z,101049.02
2018-07-06T01:38:04.673Z,101055.03
2018-07-06T01:40:51.092Z,101058.03
2018-07-06T01:43:37.408Z,101056.73
2018-07-06T01:46:24.016Z,101056.31
2018-07-06T01:49:10.459Z,101055.00
2018-07-06T01:51:57.046Z,101061.43
2018-07-06T01:54:43.529Z,101062.72
2018-07-06T01:57:30.049Z,101068.75
2018-07-06T02:00:16.596Z,101067.02
2018-07-06T02:03:03.116Z,101065.76
2018-07-06T02:05:49.425Z,101062.72
2018-07-06T02:08:35.888Z,101055.41
2018-07-06T02:11:22.552Z,101054.08
2018-07-06T02:14:08.951Z,101048.06
2018-07-06T02:16:55.421Z,101054.55
2018-07-06T02:19:41.586Z,101048.03
2018-07-06T02:22:27.976Z,101050.62
2018-07-06T02:25:14.272Z,101050.19
2018-07-06T02:28:00.852Z,101050.55
2018-07-06T02:30:47.316Z,101045.42
2018-07-06T02:33:33.508Z,101051.48
2018-07-06T02:36:19.820Z,101054.05
2018-07-06T02:39:06.341Z,101054.09
2018-07-06T02:41:52.576Z,101055.78
2018-07-06T02:44:39.139Z,101055.31
2018-07-06T02:47:25.640Z,101053.23
2018-07-06T02:50:12.112Z,101057.93
2018-07-06T02:52:58.594Z,101056.64
2018-07-06T02:55:44.929Z,101062.23
2018-07-06T02:58:31.312Z,101061.81
2018-07-06T03:01:17.961Z,101067.37
2018-07-06T03:04:04.427Z,101061.81
2018-07-06T03:06:50.711Z,101061.81
2018-07-06T03:09:37.160Z,101063.09
2018-07-06T03:12:23.466Z,101063.93
2018-07-06T03:15:09.790Z,101069.09
2018-07-06T03:17:56.396Z,101069.12
2018-07-06T03:20:43.115Z,101071.25
2018-07-06T03:23:29.525Z,101075.95
2018-07-06T03:26:15.938Z,101079.89
2018-07-06T03:29:02.515Z,101075.13
2018-07-06T03:31:49.000Z,101077.73
2018-07-06T03:34:35.348Z,101074.72
2018-07-06T03:37:21.847Z,101075.61
2018-07-06T03:40:08.307Z,101078.63
2018-07-06T03:42:54.779Z,101087.64
2018-07-06T03:45:41.151Z,101082.42
2018-07-06T03:48:28.883Z,101082.36
2018-07-06T03:51:15.394Z,101084.52
2018-07-06T03:54:01.717Z,101086.23
2018-07-06T03:56:47.949Z,101084.92
2018-07-06T03:59:34.348Z,101090.94
2018-07-06T04:02:20.881Z,101095.25
2018-07-06T04:05:07.293Z,101097.38
2018-07-06T04:07:53.684Z,101095.66
2018-07-06T04:10:40.075Z,101093.90
2018-07-06T04:13:26.565Z,101099.50
2018-07-06T04:16:12.961Z,101101.25
2018-07-06T04:19:06.560Z,101096.95
2018-07-06T04:21:54.204Z,101100.85
2018-07-06T04:24:40.525Z,101101.28
2018-07-06T04:27:26.897Z,101109.03
2018-07-06T04:30:13.272Z,101108.20
2018-07-06T04:32:59.441Z,101117.27
2018-07-06T04:35:45.958Z,101117.27
2018-07-06T04:38:32.476Z,101117.70
2018-07-06T04:41:18.880Z,101122.38
2018-07-06T04:44:05.477Z,101121.52
2018-07-06T04:46:51.938Z,101120.23
2018-07-06T04:49:38.452Z,101117.22
2018-07-06T04:52:24.840Z,101118.97
2018-07-06T04:55:11.313Z,101122.41
2018-07-06T04:57:57.564Z,101123.70
2018-07-06T05:00:43.944Z,101124.97
2018-07-06T05:03:30.248Z,101124.56
2018-07-06T05:06:16.738Z,101125.48
2018-07-06T05:09:03.220Z,101126.72
2018-07-06T05:11:49.584Z,101125.05
2018-07-06T05:14:36.156Z,101128.47
2018-07-06T05:17:22.616Z,101126.28
2018-07-06T05:20:09.212Z,101124.59
2018-07-06T05:22:55.457Z,101126.32
2018-07-06T05:25:41.712Z,101129.73
2018-07-06T05:28:27.979Z,101128.81
2018-07-06T05:31:14.276Z,101133.93
2018-07-06T05:34:00.441Z,101129.63
2018-07-06T05:36:46.852Z,101129.19
2018-07-06T05:39:33.416Z,101129.59
2018-07-06T05:42:19.795Z,101134.80
2018-07-06T05:45:06.125Z,101139.53
2018-07-06T05:47:52.517Z,101141.31
2018-07-06T05:50:39.069Z,101145.19
2018-07-06T05:53:25.436Z,101150.81
2018-07-06T05:56:11.976Z,101149.09
2018-07-06T05:58:58.418Z,101156.44
2018-07-06T06:01:44.812Z,101157.70
2018-07-06T06:04:31.133Z,101160.77
2018-07-06T06:07:17.456Z,101157.30
2018-07-06T06:09:46.260Z,101155.55
2018-07-06T06:12:15.393Z,101158.57
2018-07-06T06:14:44.479Z,101160.70
2018-07-06T06:17:13.613Z,101167.99
2018-07-06T06:19:42.776Z,101164.97
2018-07-06T06:22:11.889Z,101174.00
2018-07-06T06:24:41.090Z,101172.28
2018-07-06T06:27:10.236Z,101173.97
2018-07-06T06:29:39.619Z,101174.38
2018-07-06T06:32:09.449Z,101183.86
2018-07-06T06:34:38.572Z,101172.16
2018-07-06T06:37:07.676Z,101177.76
2018-07-06T06:39:36.777Z,101177.27
2018-07-06T06:42:05.892Z,101175.04
2018-07-06T06:44:34.997Z,101178.92
2018-07-06T06:47:04.080Z,101181.86
2018-07-06T06:49:33.204Z,101185.70
2018-07-06T06:52:02.309Z,101182.72
2018-07-06T06:54:31.412Z,101184.84
2018-07-06T06:57:00.496Z,101181.39
2018-07-06T06:59:29.588Z,101182.22
2018-07-06T07:01:58.780Z,101188.64
2018-07-06T07:04:27.880Z,101181.27
2018-07-06T07:06:57.104Z,101188.55
2018-07-06T07:09:26.212Z,101186.83
2018-07-06T07:11:55.331Z,101195.54
2018-07-06T07:14:24.432Z,101202.48
2018-07-06T07:16:53.532Z,101201.14
2018-07-06T07:19:22.645Z,101199.38
2018-07-06T07:21:51.720Z,101200.33
2018-07-06T07:24:20.835Z,101201.58
2018-07-06T07:26:50.006Z,101208.55
2018-07-06T07:29:19.088Z,101209.45
2018-07-06T07:31:49.163Z,101210.72
2018-07-06T07:34:18.268Z,101209.53
2018-07-06T07:36:47.344Z,101216.46
2018-07-06T07:39:16.449Z,101216.46
2018-07-06T07:41:45.517Z,101216.89
2018-07-06T07:44:14.840Z,101222.89
2018-07-06T07:46:43.925Z,101228.10
2018-07-06T07:49:13.008Z,101224.22
2018-07-06T07:51:56.652Z,101229.02
2018-07-06T07:54:33.196Z,101232.53
2018-07-06T07:57:02.996Z,101232.12
2018-07-06T07:59:33.148Z,101235.11
2018-07-06T08:02:03.141Z,101234.19
2018-07-06T08:04:32.584Z,101240.20
2018-07-06T08:07:02.089Z,101242.73
2018-07-06T08:09:31.160Z,101241.40
2018-07-06T08:12:01.484Z,101241.83
2018-07-06T08:14:30.554Z,101242.30
2018-07-06T08:17:00.026Z,101243.55
2018-07-06T08:19:29.150Z,101247.41
2018-07-06T08:21:58.450Z,101248.62
2018-07-06T08:24:27.680Z,101242.98
2018-07-06T08:26:56.840Z,101249.02
2018-07-06T08:29:25.951Z,101240.75
2018-07-06T08:31:55.532Z,101246.33
2018-07-06T08:34:35.940Z,101247.17
2018-07-06T08:37:43.916Z,101257.49
2018-07-06T08:40:13.421Z,101257.88
2018-07-06T08:42:43.933Z,101249.98
2018-07-06T08:45:13.260Z,101248.97
2018-07-06T08:47:42.828Z,101256.10
2018-07-06T08:50:11.916Z,101249.04
2018-07-06T08:52:42.165Z,101252.81
2018-07-06T08:55:11.254Z,101251.90
2018-07-06T08:57:41.284Z,101257.87
2018-07-06T09:00:11.168Z,101257.45
2018-07-06T09:02:40.452Z,101263.67
2018-07-06T09:05:10.180Z,101264.63
2018-07-06T09:07:39.383Z,101267.70
2018-07-06T09:10:08.477Z,101268.63
2018-07-06T09:12:37.788Z,101271.27
2018-07-06T09:15:07.606Z,101275.16
2018-07-06T09:17:36.907Z,101278.52
2018-07-06T09:20:06.251Z,101284.08
2018-07-06T09:22:35.162Z,101279.72
2018-07-06T09:25:05.695Z,101283.25
2018-07-06T09:27:35.017Z,101286.15
2018-07-06T09:30:04.306Z,101279.78
2018-07-06T09:32:34.554Z,101283.31
2018-07-06T09:35:04.393Z,101287.33
2018-07-06T09:37:33.561Z,101284.00
2018-07-06T09:40:02.648Z,101288.05
2018-07-06T09:42:31.771Z,101290.33
2018-07-06T09:45:00.851Z,101284.75
2018-07-06T09:47:30.046Z,101287.63
2018-07-06T09:49:59.145Z,101287.12
2018-07-06T09:52:28.281Z,101285.90
2018-07-06T09:54:57.391Z,101288.43
2018-07-06T09:57:26.651Z,101288.38
2018-07-06T09:59:56.368Z,101287.87
2018-07-06T10:02:25.774Z,101288.80
2018-07-06T10:04:54.897Z,101292.70
2018-07-06T10:07:24.108Z,101289.59
2018-07-06T10:09:53.356Z,101290.41
2018-07-06T10:12:22.516Z,101296.09
2018-07-06T10:14:51.616Z,101294.68
2018-07-06T10:17:20.745Z,101300.98
2018-07-06T10:19:50.498Z,101299.92
2018-07-06T10:22:19.619Z,101302.15
2018-07-06T10:24:48.940Z,101298.45
2018-07-06T10:27:18.099Z,101301.39
2018-07-06T10:29:55.283Z,101301.89
2018-07-06T10:32:25.804Z,101294.18
2018-07-06T10:34:55.184Z,101302.39
2018-07-06T10:37:24.604Z,101304.64
2018-07-06T10:39:53.982Z,101296.78
2018-07-06T10:42:22.867Z,101301.11
2018-07-06T10:44:51.946Z,101306.09
2018-07-06T10:47:21.080Z,101308.37
2018-07-06T10:49:50.180Z,101309.85
2018-07-06T10:52:19.320Z,101301.55
2018-07-06T10:54:48.758Z,101306.25
2018-07-06T10:57:17.937Z,101308.98
2018-07-06T10:59:47.059Z,101305.72
2018-07-06T11:02:16.279Z,101306.66
2018-07-06T11:04:45.461Z,101296.59
2018-07-06T11:07:14.632Z,101293.09
2018-07-06T11:09:43.775Z,101305.70
2018-07-06T11:12:12.840Z,101310.14
2018-07-06T11:14:41.936Z,101312.05
2018-07-06T11:17:11.010Z,101312.30
2018-07-06T11:19:40.100Z,101309.79
2018-07-06T11:22:09.188Z,101299.55
2018-07-06T11:24:38.294Z,101307.87
2018-07-06T11:27:07.375Z,101312.34
2018-07-06T11:29:36.500Z,101305.97
2018-07-06T11:32:05.617Z,101302.30
2018-07-06T11:34:34.786Z,101291.05
2018-07-06T11:37:03.896Z,101290.53
2018-07-06T11:39:33.001Z,101293.93
2018-07-06T11:42:02.076Z,101292.94
2018-07-06T11:44:31.568Z,101283.01
2018-07-06T11:47:00.636Z,101285.80
2018-07-06T11:49:29.792Z,101287.28
2018-07-06T11:51:58.944Z,101296.00
2018-07-06T11:54:28.068Z,101295.88
2018-07-06T11:56:57.143Z,101287.55
2018-07-06T11:59:26.252Z,101289.23
2018-07-06T12:01:55.472Z,101288.05
2018-07-06T12:04:24.548Z,101290.81
2018-07-06T12:06:53.905Z,101289.97
2018-07-06T12:09:22.993Z,101286.39
2018-07-06T12:11:52.079Z,101296.33
2018-07-06T12:14:21.553Z,101288.89
2018-07-06T12:16:50.616Z,101289.02
2018-07-06T12:19:19.823Z,101282.67
2018-07-06T12:21:48.940Z,101283.98
2018-07-06T12:24:18.025Z,101275.86
2018-07-06T12:26:47.465Z,101281.31
2018-07-06T12:29:16.958Z,101285.56
2018-07-06T12:31:47.096Z,101290.98
2018-07-06T12:34:16.420Z,101284.38
2018-07-06T12:36:45.827Z,101273.00
2018-07-06T12:39:15.066Z,101282.28
2018-07-06T12:41:44.359Z,101276.17
2018-07-06T12:44:13.432Z,101281.61
2018-07-06T12:46:42.620Z,101272.61
2018-07-06T12:49:11.695Z,101276.08
2018-07-06T12:51:40.824Z,101269.11
2018-07-06T12:54:09.903Z,101273.88
2018-07-06T12:56:39.001Z,101275.94
2018-07-06T12:59:08.088Z,101277.13
2018-07-06T13:01:37.184Z,101272.61
2018-07-06T13:04:06.309Z,101269.59
2018-07-06T13:06:35.456Z,101268.09
2018-07-06T13:09:04.962Z,101268.38
2018-07-06T13:11:34.040Z,101261.37
2018-07-06T13:14:03.128Z,101276.78
2018-07-06T13:16:32.226Z,101263.58
2018-07-06T13:19:01.302Z,101272.80
2018-07-06T13:21:30.397Z,101270.51
2018-07-06T13:23:59.480Z,101272.87
2018-07-06T13:26:28.641Z,101267.97
2018-07-06T13:28:57.724Z,101273.16
2018-07-06T13:31:26.816Z,101270.61
2018-07-06T13:33:55.944Z,101267.37
2018-07-06T13:36:25.026Z,101267.37
2018-07-06T13:38:54.099Z,101265.84
2018-07-06T13:41:23.195Z,101272.33
2018-07-06T13:43:52.309Z,101268.29
2018-07-06T13:46:21.416Z,101275.19
2018-07-06T13:48:50.504Z,101273.53
2018-07-06T13:51:19.632Z,101276.08
2018-07-06T13:53:48.726Z,101276.50
2018-07-06T13:56:17.796Z,101275.06
2018-07-06T13:58:46.896Z,101284.61
2018-07-06T14:01:15.977Z,101276.50
2018-07-06T14:03:45.197Z,101271.11
2018-07-06T14:06:14.276Z,101277.98
2018-07-06T14:08:43.375Z,101278.22
2018-07-06T14:11:12.463Z,101274.66
2018-07-06T14:13:41.556Z,101277.19
2018-07-06T14:16:10.638Z,101284.71
2018-07-06T14:18:39.733Z,101281.00
2018-07-06T14:21:09.212Z,101285.00
2018-07-06T14:23:38.316Z,101282.80
2018-07-06T14:26:07.608Z,101283.66
2018-07-06T14:28:36.721Z,101281.24
2018-07-06T14:31:05.788Z,101284.73
2018-07-06T14:33:34.882Z,101282.70
2018-07-06T14:36:04.027Z,101282.98
2018-07-06T14:38:33.120Z,101280.70
2018-07-06T14:41:02.229Z,101281.17
2018-07-06T14:43:31.322Z,101282.17
2018-07-06T14:46:00.432Z,101286.47
2018-07-06T14:48:29.606Z,101277.23
2018-07-06T14:50:58.680Z,101273.20
2018-07-06T14:53:27.808Z,101277.33
2018-07-06T14:55:56.889Z,101286.50
2018-07-06T14:58:26.004Z,101283.72
2018-07-06T15:00:55.100Z,101279.17
2018-07-06T15:03:24.237Z,101283.39
2018-07-06T15:05:53.328Z,101284.02
2018-07-06T15:08:22.433Z,101285.91
2018-07-06T15:10:51.525Z,101286.23
2018-07-06T15:13:20.661Z,101285.61
2018-07-06T15:15:49.712Z,101279.22
2018-07-06T15:18:18.844Z,101284.95
2018-07-06T15:20:47.932Z,101289.59
2018-07-06T15:23:17.036Z,101285.88
2018-07-06T15:25:46.115Z,101290.04
2018-07-06T15:28:15.184Z,101284.64
2018-07-06T15:30:44.293Z,101294.87
2018-07-06T15:33:13.376Z,101294.50
2018-07-06T15:35:42.491Z,101298.55
2018-07-06T15:38:11.565Z,101298.14
2018-07-06T15:40:40.656Z,101305.48
2018-07-06T15:43:09.740Z,101295.19
2018-07-06T15:45:38.844Z,101299.77
2018-07-06T15:48:07.911Z,101297.77
2018-07-06T15:50:37.028Z,101298.66
2018-07-06T15:53:06.177Z,101304.50
2018-07-06T15:55:35.268Z,101299.55
2018-07-06T15:58:04.338Z,101301.99
2018-07-06T16:00:33.464Z,101301.27
2018-07-06T16:03:02.529Z,101299.27
2018-07-06T16:05:31.620Z,101300.56
2018-07-06T16:08:00.688Z,101305.59
2018-07-06T16:10:29.848Z,101312.64
2018-07-06T16:12:58.945Z,101308.11
2018-07-06T16:15:28.036Z,101303.78
2018-07-06T16:17:57.112Z,101314.05
2018-07-06T16:20:26.208Z,101316.20
2018-07-06T16:22:55.308Z,101311.22
2018-07-06T16:25:24.408Z,101311.22
2018-07-06T16:27:53.567Z,101310.30
2018-07-06T16:30:22.604Z,101314.17
2018-07-06T16:32:51.690Z,101309.44
2018-07-06T16:35:20.780Z,101312.49
2018-07-06T16:37:49.859Z,101307.38
2018-07-06T16:40:18.957Z,101311.16
2018-07-06T16:42:48.033Z,101311.77
2018-07-06T16:45:17.123Z,101312.19
2018-07-06T16:47:46.253Z,101315.05
2018-07-06T16:50:15.340Z,101317.53
2018-07-06T16:52:44.456Z,101321.28
2018-07-06T16:55:13.555Z,101318.01
2018-07-06T16:57:42.621Z,101320.87
2018-07-06T17:00:11.700Z,101311.55
2018-07-06T17:02:40.794Z,101317.33
2018-07-06T17:05:09.861Z,101317.40
2018-07-06T17:07:38.956Z,101311.25
2018-07-06T17:10:08.300Z,101315.45
2018-07-06T17:12:37.393Z,101322.83
2018-07-06T17:15:06.467Z,101326.16
2018-07-06T17:17:35.559Z,101322.06
2018-07-06T17:20:04.641Z,101326.30
2018-07-06T17:22:33.734Z,101330.19
2018-07-06T17:25:02.811Z,101332.34
2018-07-06T17:27:31.920Z,101318.95
2018-07-06T17:30:00.983Z,101330.30
2018-07-06T17:32:30.124Z,101336.11
2018-07-06T17:34:59.203Z,101333.05
2018-07-06T17:37:28.375Z,101330.65
2018-07-06T17:39:57.464Z,101337.13
2018-07-06T17:42:26.582Z,101332.73
2018-07-06T17:44:55.771Z,101340.19
2018-07-06T17:47:24.899Z,101342.85
2018-07-06T17:49:54.014Z,101346.37
2018-07-06T17:52:23.162Z,101348.20
2018-07-06T17:54:52.406Z,101345.34
2018-07-06T17:57:21.591Z,101350.84
2018-07-06T17:59:50.708Z,101346.65
2018-07-06T18:02:19.833Z,101360.31
2018-07-06T18:04:48.932Z,101357.20
2018-07-06T18:07:18.100Z,101358.17
2018-07-06T18:09:47.165Z,101358.56
2018-07-06T18:12:16.282Z,101358.69
2018-07-06T18:14:45.383Z,101361.08
2018-07-06T18:17:14.569Z,101363.56
2018-07-06T18:19:43.724Z,101364.16
2018-07-06T18:22:12.838Z,101365.66
2018-07-06T18:24:41.940Z,101367.16
2018-07-06T18:27:11.041Z,101371.73
2018-07-06T18:29:40.274Z,101374.41
2018-07-06T18:32:09.309Z,101377.21
2018-07-06T18:34:38.449Z,101377.50
2018-07-06T18:37:07.540Z,101378.88
2018-07-06T18:39:36.639Z,101380.65
2018-07-06T18:42:05.708Z,101384.97
2018-07-06T18:44:35.507Z,101386.61
2018-07-06T18:47:04.678Z,101386.36
2018-07-06T18:49:33.787Z,101388.53
2018-07-06T18:52:02.873Z,101389.14
2018-07-06T18:54:31.972Z,101397.91
2018-07-06T18:57:01.062Z,101394.70
2018-07-06T18:59:30.162Z,101401.34
2018-07-06T19:01:59.243Z,101398.47
2018-07-06T19:04:28.360Z,101403.63
2018-07-06T19:06:57.532Z,101402.33
2018-07-06T19:09:26.640Z,101407.70
2018-07-06T19:11:56.556Z,101402.09
2018-07-06T19:14:25.668Z,101410.74
2018-07-06T19:16:54.736Z,101411.59
2018-07-06T19:19:23.827Z,101410.30
2018-07-06T19:21:53.332Z,101419.41
2018-07-06T19:24:22.444Z,101423.38
2018-07-06T19:26:51.524Z,101422.66
2018-07-06T19:29:20.620Z,101428.48
2018-07-06T19:31:49.732Z,101428.20
2018-07-06T19:34:19.516Z,101433.41
2018-07-06T19:36:48.590Z,101433.87
2018-07-06T19:39:17.726Z,101436.06
2018-07-06T19:41:46.952Z,101449.52
2018-07-06T19:44:16.024Z,101450.90
2018-07-06T19:46:45.112Z,101453.13
2018-07-06T19:49:14.189Z,101456.52
2018-07-06T19:51:43.317Z,101462.20
2018-07-06T19:54:12.391Z,101466.66
2018-07-06T19:56:41.484Z,101460.12
2018-07-06T19:59:10.556Z,101469.30
2018-07-06T20:01:39.715Z,101472.77
2018-07-06T20:04:08.964Z,101472.44
2018-07-06T20:06:38.149Z,101471.67
2018-07-06T20:09:07.772Z,101480.75
2018-07-06T20:11:36.873Z,101481.70
2018-07-06T20:14:05.940Z,101481.80
2018-07-06T20:16:35.057Z,101492.17
2018-07-06T20:19:04.121Z,101490.91
2018-07-06T20:21:33.212Z,101494.80
2018-07-06T20:24:02.293Z,101497.87
2018-07-06T20:26:31.400Z,101501.36
2018-07-06T20:29:00.538Z,101506.16
2018-07-06T20:31:29.576Z,101505.42
2018-07-06T20:33:58.636Z,101507.64
2018-07-06T20:36:27.743Z,101515.01
2018-07-06T20:38:56.808Z,101524.57
2018-07-06T20:41:25.895Z,101523.73
2018-07-06T20:43:54.993Z,101524.17
2018-07-06T20:46:24.089Z,101524.19
2018-07-06T20:48:53.156Z,101522.45
2018-07-06T20:51:22.245Z,101531.11
2018-07-06T20:53:51.325Z,101535.00
2018-07-06T20:56:20.408Z,101535.84
2018-07-06T20:58:49.492Z,101543.66
2018-07-06T21:01:18.589Z,101540.64
2018-07-06T21:03:48.304Z,101544.09
2018-07-06T21:06:17.476Z,101540.67
2018-07-06T21:08:46.563Z,101538.95
2018-07-06T21:11:15.652Z,101541.11
2018-07-06T21:13:44.728Z,101545.84
2018-07-06T21:16:13.903Z,101545.84
2018-07-06T21:18:42.900Z,101551.47
2018-07-06T21:21:12.008Z,101558.34
2018-07-06T21:23:41.093Z,101550.16
2018-07-06T21:26:10.168Z,101557.49
2018-07-06T21:28:40.202Z,101554.91
2018-07-06T21:31:09.683Z,101562.22
2018-07-06T21:33:38.849Z,101560.08
2018-07-06T21:36:08.077Z,101561.37
2018-07-06T21:38:37.195Z,101565.66
2018-07-06T21:41:06.281Z,101565.26
2018-07-06T21:43:35.372Z,101564.80
2018-07-06T21:46:04.889Z,101563.52
2018-07-06T21:48:34.048Z,101566.05
2018-07-06T21:51:03.152Z,101571.64
2018-07-06T21:53:32.272Z,101573.38
2018-07-06T21:56:01.368Z,101580.22
2018-07-06T21:58:30.565Z,101575.46
2018-07-06T22:01:00.154Z,101580.19
2018-07-06T22:03:29.240Z,101580.59
2018-07-06T22:05:58.332Z,101582.75
2018-07-06T22:08:27.440Z,101584.84
2018-07-06T22:10:56.544Z,101589.60
2018-07-06T22:13:25.636Z,101585.66
2018-07-06T22:15:54.708Z,101582.66
2018-07-06T22:18:23.808Z,101586.52
2018-07-06T22:20:52.892Z,101583.46
2018-07-06T22:23:22.001Z,101582.61
2018-07-06T22:25:51.280Z,101579.21
2018-07-06T22:28:20.385Z,101581.34
2018-07-06T22:30:49.456Z,101589.93
2018-07-06T22:33:18.560Z,101587.38
2018-07-06T22:35:47.632Z,101591.66
2018-07-06T22:38:16.733Z,101595.08
2018-07-06T22:40:45.812Z,101593.72
2018-07-06T22:43:14.912Z,101593.75
2018-07-06T22:45:43.993Z,101587.67
2018-07-06T22:48:13.089Z,101593.34
2018-07-06T22:50:42.161Z,101592.91
2018-07-06T22:53:11.288Z,101596.30
2018-07-06T22:55:40.356Z,101598.44
2018-07-06T22:58:09.435Z,101597.13
2018-07-06T23:00:38.535Z,101592.83
2018-07-06T23:03:07.612Z,101598.91
2018-07-06T23:05:36.746Z,101592.83
2018-07-06T23:08:05.789Z,101593.66
2018-07-06T23:10:34.883Z,101591.90
2018-07-06T23:13:03.955Z,101594.45
2018-07-06T23:15:33.066Z,101596.59
2018-07-06T23:18:02.120Z,101599.97
2018-07-06T23:20:31.216Z,101600.79
2018-07-06T23:23:16.475Z,101600.71
2018-07-06T23:25:46.716Z,101598.52
2018-07-06T23:28:15.867Z,101592.05
2018-07-06T23:30:50.248Z,101592.91
2018-07-06T23:33:19.319Z,101592.45
2018-07-06T23:35:48.448Z,101594.89
2018-07-06T23:38:17.548Z,101587.89
2018-07-06T23:40:46.624Z,101593.82
2018-07-06T23:43:15.696Z,101593.66
2018-07-06T23:45:44.804Z,101591.92
2018-07-06T23:48:13.892Z,101601.66
2018-07-06T23:50:42.980Z,101597.35
2018-07-06T23:53:12.069Z,101605.55
2018-07-06T23:55:41.164Z,101597.29
2018-07-06T23:58:10.238Z,101597.11
